Time;durP1;ratioP1;P1;durP2;ratioP2;P2;SDS_P1;SDS_P2;PMS_P1;PMS_P2;Temp;Humidity;BMP_temperature;BMP_pressure;BME280_temperature;BME280_humidity;BME280_pressure;Samples;Min_cycle;Max_cycle;Signal;HPM_P1;HPM_P2
2022/12/09 00:01:26;;;;;;;70.27;42.67;;;;;;;2.14;100.00;99887.19;1473323;87;22119;-84
2022/12/09 00:03:54;;;;;;;82.63;46.80;;;;;;;2.14;100.00;99888.02;1473553;88;22161;-83
2022/12/09 00:06:24;;;;;;;71.20;41.40;;;;;;;2.17;100.00;99893.03;1453917;88;21991;-83
2022/12/09 00:08:51;;;;;;;69.50;43.17;;;;;;;2.19;100.00;99898.98;1460952;88;22071;-84
2022/12/09 00:11:19;;;;;;;71.27;41.83;;;;;;;2.19;100.00;99893.77;1460899;88;22063;-84
2022/12/09 00:13:49;;;;;;;80.80;46.27;;;;;;;2.20;100.00;99895.89;1467575;88;22063;-84
2022/12/09 00:16:16;;;;;;;85.38;50.10;;;;;;;2.24;100.00;99892.98;1469230;88;22077;-83
2022/12/09 00:18:42;;;;;;;78.27;46.73;;;;;;;2.31;100.00;99902.98;1475696;88;22336;-82
2022/12/09 00:21:28;;;;;;;78.83;46.33;;;;;;;2.33;100.00;99891.94;1470046;87;22176;-83
2022/12/09 00:23:56;;;;;;;73.40;45.73;;;;;;;2.34;100.00;99896.24;1473464;88;22251;-84
2022/12/09 00:26:25;;;;;;;75.07;46.27;;;;;;;2.35;100.00;99892.20;1483641;88;23026;-84
2022/12/09 00:28:53;;;;;;;76.20;47.83;;;;;;;2.39;100.00;99900.67;1486876;88;22118;-83
2022/12/09 00:31:23;;;;;;;63.83;42.27;;;;;;;2.40;100.00;99907.08;1446373;88;23341;-83
2022/12/09 00:33:56;;;;;;;67.20;42.37;;;;;;;2.44;100.00;99917.66;1469463;87;22076;-84
2022/12/09 00:36:23;;;;;;;67.97;40.53;;;;;;;2.47;100.00;99920.53;1476845;87;23067;-83
2022/12/09 00:38:50;;;;;;;67.97;41.43;;;;;;;2.49;100.00;99918.18;1470862;88;23072;-83
2022/12/09 00:41:17;;;;;;;68.13;43.47;;;;;;;2.51;100.00;99910.25;1467098;87;22173;-84
2022/12/09 00:46:37;;;;;;;86.77;50.37;;;;;;;2.59;100.00;99923.61;1493663;85;22612;-82
2022/12/09 00:49:03;;;;;;;98.07;58.50;;;;;;;2.58;100.00;99936.77;1470663;88;22850;-83
2022/12/09 00:51:30;;;;;;;76.30;47.73;;;;;;;2.59;100.00;99934.06;1471226;88;22117;-83
2022/12/09 00:53:56;;;;;;;72.27;43.90;;;;;;;2.61;100.00;99937.38;1466057;87;23053;-84
2022/12/09 00:56:27;;;;;;;73.50;46.73;;;;;;;2.62;100.00;99937.77;1462616;87;22170;-82
2022/12/09 00:58:53;;;;;;;76.07;46.08;;;;;;;2.63;100.00;99943.34;1471362;88;22161;-84
2022/12/09 01:01:20;;;;;;;71.63;45.33;;;;;;;2.66;100.00;99945.73;1453087;88;21433;-84
2022/12/09 01:03:46;;;;;;;78.30;47.40;;;;;;;2.64;100.00;99934.55;1470474;88;22253;-84
2022/12/09 01:06:17;;;;;;;72.23;46.80;;;;;;;2.62;100.00;99933.02;1460119;89;22274;-83
2022/12/09 01:08:43;;;;;;;68.52;46.10;;;;;;;2.61;100.00;99926.09;1464535;88;22176;-84
2022/12/09 01:11:21;;;;;;;74.63;46.97;;;;;;;2.60;100.00;99920.05;1450029;89;21367;-82
2022/12/09 01:13:48;;;;;;;72.50;46.13;;;;;;;2.62;100.00;99918.16;1439864;91;22290;-84
2022/12/09 01:16:23;;;;;;;71.27;44.27;;;;;;;2.63;100.00;99905.45;1433132;90;23291;-83
2022/12/09 01:18:51;;;;;;;60.23;39.23;;;;;;;2.65;100.00;99897.04;1440428;90;22291;-83
2022/12/09 01:21:17;;;;;;;53.70;34.50;;;;;;;2.68;100.00;99890.28;1389779;91;22154;-85
2022/12/09 01:23:44;;;;;;;56.63;35.87;;;;;;;2.75;100.00;99896.38;1427636;91;22214;-83
2022/12/09 01:26:10;;;;;;;70.83;40.90;;;;;;;2.80;100.00;99892.96;1436205;90;23123;-84
2022/12/09 01:28:38;;;;;;;69.43;37.67;;;;;;;2.89;100.00;99900.95;1430746;90;22165;-83
2022/12/09 01:31:12;;;;;;;61.67;33.67;;;;;;;2.89;100.00;99900.95;1447861;90;22456;-84
2022/12/09 01:33:40;;;;;;;55.97;32.80;;;;;;;2.89;100.00;99902.27;1432501;90;22142;-82
2022/12/09 01:36:11;;;;;;;54.10;31.13;;;;;;;2.91;100.00;99903.48;1424185;91;23224;-82
2022/12/09 01:38:37;;;;;;;50.67;30.10;;;;;;;2.88;100.00;99903.22;1434014;91;21494;-83
2022/12/09 01:41:04;;;;;;;53.13;32.43;;;;;;;2.88;100.00;99903.22;1435225;91;21412;-80
2022/12/09 01:43:30;;;;;;;49.87;30.33;;;;;;;2.93;100.00;99911.57;1431930;91;22265;-84
2022/12/09 01:48:28;;;;;;;49.20;28.07;;;;;;;3.06;100.00;99911.50;1430407;91;23268;-83
2022/12/09 01:51:08;;;;;;;50.50;28.43;;;;;;;3.06;100.00;99911.50;1448699;89;21459;-83
2022/12/09 01:53:39;;;;;;;48.42;30.62;;;;;;;3.04;100.00;99905.53;1475405;88;21523;-83
2022/12/09 01:56:13;;;;;;;55.52;32.70;;;;;;;3.04;100.00;99911.25;1459320;88;22030;-86
2022/12/09 01:58:41;;;;;;;55.87;30.13;;;;;;;3.05;100.00;99908.53;1478383;87;21486;-85
2022/12/09 02:01:07;;;;;;;46.67;28.50;;;;;;;3.04;100.00;99908.63;1479696;88;21486;-84
2022/12/09 02:03:34;;;;;;;41.23;25.57;;;;;;;3.04;100.00;99909.45;1467050;88;22153;-86
2022/12/09 02:06:00;;;;;;;46.37;26.90;;;;;;;3.05;100.00;99908.53;1463814;88;22245;-86
2022/12/09 02:08:26;;;;;;;38.10;24.67;;;;;;;3.10;100.00;99905.09;1474855;87;22161;-85
2022/12/09 02:11:06;;;;;;;47.53;28.13;;;;;;;3.10;100.00;99905.09;1459175;89;21500;-86
2022/12/09 02:14:04;;;;;;;43.98;27.58;;;;;;;3.13;100.00;99904.03;1459911;89;21582;-85
2022/12/09 02:16:35;;;;;;;43.73;27.00;;;;;;;3.14;100.00;99903.10;1470720;88;23463;-86
2022/12/09 02:19:42;;;;;;;46.23;29.10;;;;;;;3.10;100.00;99907.70;1482955;87;21433;-86
2022/12/09 02:22:12;;;;;;;44.27;28.57;;;;;;;3.12;100.00;99912.83;1478025;88;22095;-86
2022/12/09 02:24:56;;;;;;;49.70;30.17;;;;;;;3.12;100.00;99912.83;1470847;88;22190;-86
2022/12/09 02:28:00;;;;;;;49.80;28.13;;;;;;;3.15;100.00;99908.20;1484300;88;22298;-86
2022/12/09 02:30:47;;;;;;;46.40;26.70;;;;;;;3.18;100.00;99908.94;1452894;89;22197;-86
2022/12/09 02:33:59;;;;;;;49.83;28.40;;;;;;;3.22;100.00;99912.98;1432798;89;22181;-85
2022/12/09 02:36:29;;;;;;;53.93;28.07;;;;;;;3.23;100.00;99911.57;1451874;89;22382;-84
2022/12/09 02:38:58;;;;;;;54.00;27.33;;;;;;;3.24;100.00;99903.25;1456068;89;22153;-86
2022/12/09 02:41:30;;;;;;;41.97;26.20;;;;;;;3.24;100.00;99906.94;1452374;89;21486;-85
2022/12/09 02:44:02;;;;;;;49.50;29.67;;;;;;;3.29;100.00;99912.42;1449674;89;21666;-85
2022/12/09 02:46:30;;;;;;;47.40;28.53;;;;;;;3.29;100.00;99912.42;1448498;89;21612;-84
2022/12/09 02:48:58;;;;;;;52.87;29.47;;;;;;;3.31;100.00;99918.83;1458760;89;22117;-84
2022/12/09 02:51:29;;;;;;;51.67;29.20;;;;;;;3.32;100.00;99916.59;1457527;88;22424;-85
2022/12/09 02:54:02;;;;;;;51.67;28.63;;;;;;;3.28;100.00;99908.59;1455178;88;21553;-85
2022/12/09 02:56:28;;;;;;;48.40;26.53;;;;;;;3.28;100.00;99919.06;1460582;88;22117;-84
2022/12/09 02:58:54;;;;;;;48.17;28.10;;;;;;;3.26;100.00;99913.12;1458305;88;22161;-87
2022/12/09 03:01:25;;;;;;;49.23;26.73;;;;;;;3.24;100.00;99909.30;1477722;87;21449;-85
2022/12/09 03:03:52;;;;;;;;;;;;;;;3.24;100.00;99917.16;1476680;88;21640;-83
2022/12/09 03:06:19;;;;;;;54.80;28.63;;;;;;;3.27;100.00;99922.63;1451639;89;20283;-85
2022/12/09 03:08:50;;;;;;;52.33;26.20;;;;;;;3.29;100.00;99919.44;1443380;90;22780;-86
2022/12/09 03:11:20;;;;;;;48.90;25.73;;;;;;;3.29;100.00;99911.59;1444727;90;21501;-86
2022/12/09 03:14:12;;;;;;;;;;;;;;;;;;;;;
2022/12/09 03:16:58;;;;;;;51.23;26.90;;;;;;;3.33;100.00;99910.41;1467242;88;21663;-86
2022/12/09 03:19:51;;;;;;;57.07;27.43;;;;;;;3.32;100.00;99917.42;1458399;87;21944;-85
2022/12/09 03:22:22;;;;;;;50.93;26.97;;;;;;;3.32;100.00;99917.42;1451257;89;21353;-85
2022/12/09 03:25:11;;;;;;;44.08;23.92;;;;;;;3.34;100.00;99913.41;1445460;88;22226;-85
2022/12/09 03:27:52;;;;;;;51.17;26.47;;;;;;;3.33;100.00;99913.84;1449187;89;21639;-85
2022/12/09 03:30:18;;;;;;;45.73;23.45;;;;;;;3.33;100.00;99909.09;1461730;88;21368;-86
2022/12/09 03:32:46;;;;;;;53.03;26.87;;;;;;;3.37;100.00;99923.16;1470924;87;21360;-85
2022/12/09 03:35:25;;;;;;;54.27;29.93;;;;;;;3.37;100.00;99923.16;1474140;88;21726;-85
2022/12/09 03:37:52;;;;;;;54.83;28.77;;;;;;;3.37;100.00;99920.54;1471905;88;21515;-84
2022/12/09 03:40:23;;;;;;;52.47;27.33;;;;;;;3.33;100.00;99911.71;1472542;88;21560;-84
2022/12/09 03:42:59;;;;;;;;;;;;;;;3.33;100.00;99911.71;1476607;87;21605;-86
2022/12/09 03:45:26;;;;;;;51.97;28.13;;;;;;;3.32;100.00;99912.19;1473341;87;20818;-87
2022/12/09 03:47:53;;;;;;;45.73;25.27;;;;;;;3.32;100.00;99912.19;1480918;88;21655;-88
2022/12/09 03:50:23;;;;;;;56.33;26.73;;;;;;;3.37;100.00;99923.63;1482472;87;22359;-87
2022/12/09 03:52:58;;;;;;;53.40;27.07;;;;;;;3.35;100.00;99921.59;1492434;87;21514;-83
2022/12/09 03:55:44;;;;;;;56.83;27.13;;;;;;;3.37;100.00;99922.33;1478483;87;22380;-86
2022/12/09 03:58:12;;;;;;;62.20;29.43;;;;;;;3.43;100.00;99931.02;1485716;87;21559;-85
2022/12/09 04:00:38;;;;;;;57.13;27.90;;;;;;;3.36;100.00;99945.48;1481315;88;21553;-85
2022/12/09 04:03:06;;;;;;;64.77;28.17;;;;;;;3.33;100.00;99940.48;1483921;88;21360;-84
2022/12/09 04:05:32;;;;;;;66.43;30.23;;;;;;;3.30;100.00;99945.95;1480264;87;21493;-84
2022/12/09 04:07:59;;;;;;;60.67;27.73;;;;;;;3.30;100.00;99938.92;1483928;88;22264;-84
2022/12/09 04:10:25;;;;;;;60.10;30.80;;;;;;;3.29;100.00;99935.13;1484342;87;21434;-85
2022/12/09 04:12:51;;;;;;;63.27;30.07;;;;;;;3.29;100.00;99937.75;1473579;88;22507;-86
2022/12/09 04:15:17;;;;;;;57.23;29.13;;;;;;;3.28;100.00;99929.52;1465040;88;21412;-85
2022/12/09 04:17:43;;;;;;;57.03;25.70;;;;;;;3.30;100.00;99935.48;1485734;87;21514;-85
2022/12/09 04:20:10;;;;;;;65.33;28.33;;;;;;;3.31;100.00;99931.45;1484071;87;21405;-86
2022/12/09 04:22:38;;;;;;;65.93;29.50;;;;;;;3.34;100.00;99934.33;1477309;88;21522;-83
2022/12/09 04:25:05;;;;;;;58.57;27.97;;;;;;;3.32;100.00;99930.98;1486318;87;21544;-83
2022/12/09 04:27:31;;;;;;;68.73;29.30;;;;;;;3.33;100.00;99915.77;1483213;87;22411;-85
2022/12/09 04:29:57;;;;;;;59.40;26.00;;;;;;;3.31;100.00;99915.77;1475175;87;21419;-85
2022/12/09 04:32:23;;;;;;;54.80;27.80;;;;;;;3.36;100.00;99931.10;1483425;87;21381;-85
2022/12/09 04:34:49;;;;;;;66.83;30.83;;;;;;;3.37;100.00;99932.79;1487123;87;21375;-81
2022/12/09 04:37:15;;;;;;;65.07;30.50;;;;;;;3.34;100.00;99923.86;1487637;87;21441;-83
2022/12/09 04:39:41;;;;;;;53.67;27.13;;;;;;;3.33;100.00;99924.31;1486550;87;21448;-85
2022/12/09 04:42:07;;;;;;;57.80;28.27;;;;;;;3.30;100.00;99926.33;1482828;87;22081;-85
2022/12/09 04:44:33;;;;;;;78.80;37.67;;;;;;;3.29;100.00;99916.83;1483827;87;21485;-84
2022/12/09 04:47:00;;;;;;;61.37;29.53;;;;;;;3.31;100.00;99921.00;1483172;87;22272;-82
2022/12/09 04:49:26;;;;;;;67.77;33.97;;;;;;;3.30;100.00;99928.94;1478275;88;21648;-84
2022/12/09 04:51:52;;;;;;;68.23;33.17;;;;;;;3.29;100.00;99927.28;1483423;87;22328;-83
2022/12/09 04:54:18;;;;;;;56.03;28.77;;;;;;;3.29;100.00;99932.04;1479995;88;21580;-84
2022/12/09 04:56:44;;;;;;;58.63;30.47;;;;;;;3.31;100.00;99918.83;1490064;88;21383;-85
2022/12/09 04:59:10;;;;;;;61.83;30.70;;;;;;;3.35;100.00;99925.52;1486117;87;22497;-85
2022/12/09 05:01:36;;;;;;;61.20;30.20;;;;;;;3.35;100.00;99925.52;1484024;87;21478;-84
2022/12/09 05:04:03;;;;;;;61.53;31.87;;;;;;;3.35;100.00;99932.06;1483671;88;21502;-83
2022/12/09 05:06:28;;;;;;;66.17;31.90;;;;;;;3.33;100.00;99930.02;1478694;87;21440;-82
2022/12/09 05:08:55;;;;;;;63.20;31.27;;;;;;;3.27;100.00;99921.33;1488037;87;21419;-85
2022/12/09 05:11:22;;;;;;;67.43;33.70;;;;;;;3.30;100.00;99934.17;1475902;87;21426;-83
2022/12/09 05:13:52;;;;;;;65.00;33.60;;;;;;;3.22;100.00;99919.03;1485199;87;21426;-85
2022/12/09 05:16:19;;;;;;;64.30;34.27;;;;;;;3.22;100.00;99919.03;1475590;87;21338;-88
2022/12/09 05:18:47;;;;;;;70.20;34.40;;;;;;;3.29;100.00;99932.52;1484752;87;21448;-87
2022/12/09 05:21:18;;;;;;;64.10;32.83;;;;;;;3.30;100.00;99938.09;1480707;88;22702;-88
2022/12/09 05:23:44;;;;;;;68.95;35.98;;;;;;;3.30;100.00;99938.09;1490185;87;22372;-88
2022/12/09 05:26:14;;;;;;;78.43;34.97;;;;;;;3.24;100.00;99927.61;1478366;88;21441;-87
2022/12/09 05:28:41;;;;;;;80.10;27.55;;;;;;;3.24;100.00;99927.61;1481040;88;22306;-88
2022/12/09 05:31:13;;;;;;;73.60;35.00;;;;;;;3.24;100.00;99926.78;1486231;87;21470;-89
2022/12/09 05:33:40;;;;;;;77.60;36.07;;;;;;;3.24;100.00;99926.78;1481122;87;21485;-87
2022/12/09 05:36:13;;;;;;;73.23;33.77;;;;;;;3.29;100.00;99937.27;1477145;88;22365;-88
2022/12/09 05:38:39;;;;;;;72.37;34.90;;;;;;;3.34;100.00;99933.02;1478638;88;22955;-87
2022/12/09 05:41:07;;;;;;;79.30;38.87;;;;;;;3.36;100.00;99931.10;1465937;88;21426;-89
2022/12/09 05:43:35;;;;;;;80.43;37.70;;;;;;;3.36;100.00;99931.10;1487842;87;21529;-88
2022/12/09 05:46:02;;;;;;;81.27;39.50;;;;;;;3.40;100.00;99931.25;1480766;88;21478;-88
2022/12/09 05:48:29;;;;;;;77.80;34.83;;;;;;;3.43;100.00;99928.89;1485653;87;21537;-88
2022/12/09 05:51:06;;;;;;;77.20;35.53;;;;;;;3.42;100.00;99928.03;1489591;87;21515;-87
2022/12/09 05:53:33;;;;;;;85.63;40.77;;;;;;;3.41;100.00;99939.45;1482732;87;23288;-87
2022/12/09 05:55:59;;;;;;;88.03;39.97;;;;;;;3.40;100.00;99935.17;1482198;87;21611;-88
2022/12/09 05:58:26;;;;;;;83.40;38.97;;;;;;;3.38;100.00;99943.60;1470454;88;21419;-91
2022/12/09 06:00:55;;;;;;;86.77;37.93;;;;;;;3.39;100.00;99957.03;1492570;87;21440;-89
2022/12/09 06:03:20;;;;;;;76.37;34.57;;;;;;;3.39;100.00;99953.97;1478523;87;21478;-88
2022/12/09 06:05:47;;;;;;;91.77;48.83;;;;;;;3.42;100.00;99954.67;1483873;87;22560;-89
2022/12/09 06:08:13;;;;;;;94.40;51.30;;;;;;;3.42;100.00;99958.59;1473491;88;22364;-90
2022/12/09 06:10:40;;;;;;;81.83;40.47;;;;;;;3.40;100.00;99953.48;1469240;88;22337;-87
2022/12/09 06:13:07;;;;;;;87.60;42.17;;;;;;;3.40;100.00;99948.26;1488763;87;21618;-88
2022/12/09 06:15:34;;;;;;;81.10;39.40;;;;;;;3.45;100.00;99956.58;1482962;88;21544;-83
2022/12/09 06:18:01;;;;;;;84.43;41.00;;;;;;;3.50;100.00;99956.25;1484739;88;21367;-82
2022/12/09 06:20:27;;;;;;;74.53;37.80;;;;;;;3.45;100.00;99936.95;1483198;87;22556;-81
2022/12/09 06:22:53;;;;;;;82.83;38.40;;;;;;;3.53;100.00;99949.00;1480876;87;21485;-80
2022/12/09 06:25:19;;;;;;;84.57;38.80;;;;;;;3.55;100.00;99951.52;1483651;87;21470;-85
2022/12/09 06:27:45;;;;;;;75.07;35.67;;;;;;;3.59;100.00;99952.46;1473374;88;21425;-85
2022/12/09 06:30:12;;;;;;;66.33;34.07;;;;;;;3.60;100.00;99948.91;1475745;88;21426;-86
2022/12/09 06:32:38;;;;;;;78.80;39.70;;;;;;;3.62;100.00;99946.16;1482916;87;21545;-85
2022/12/09 06:35:06;;;;;;;76.17;36.13;;;;;;;3.68;100.00;99948.80;1488589;87;21433;-83
2022/12/09 06:37:32;;;;;;;75.47;35.87;;;;;;;3.71;100.00;99949.88;1482162;87;21619;-83
2022/12/09 06:39:58;;;;;;;83.53;36.07;;;;;;;3.76;100.00;99954.30;1479303;87;21966;-83
2022/12/09 06:42:24;;;;;;;75.23;36.27;;;;;;;3.79;100.00;99952.75;1485106;87;21596;-83
2022/12/09 06:44:50;;;;;;;79.67;38.53;;;;;;;3.80;100.00;99948.73;1484868;87;22335;-81
2022/12/09 06:47:16;;;;;;;73.23;35.47;;;;;;;3.82;100.00;99941.57;1482560;87;21574;-83
2022/12/09 06:49:42;;;;;;;81.67;40.47;;;;;;;3.86;100.00;99941.37;1482487;87;21529;-84
2022/12/09 06:52:08;;;;;;;75.73;35.77;;;;;;;3.85;100.00;99943.13;1484094;88;21411;-83
2022/12/09 06:54:35;;;;;;;83.73;39.50;;;;;;;3.87;100.00;99945.16;1492520;87;22542;-81
2022/12/09 06:57:01;;;;;;;80.30;37.97;;;;;;;3.93;100.00;99943.38;1486541;87;22440;-82
2022/12/09 06:59:27;;;;;;;74.77;33.97;;;;;;;3.97;100.00;99946.14;1492273;88;21588;-82
2022/12/09 07:01:53;;;;;;;73.93;37.17;;;;;;;3.99;100.00;99942.91;1483051;87;21875;-81
2022/12/09 07:04:19;;;;;;;76.70;40.90;;;;;;;4.03;100.00;99949.59;1480746;87;21448;-80
2022/12/09 07:06:45;;;;;;;82.87;41.07;;;;;;;4.06;100.00;99951.98;1482234;87;21397;-82
2022/12/09 07:09:15;;;;;;;101.23;48.50;;;;;;;4.11;100.00;99954.70;1478690;88;21426;-83
2022/12/09 07:11:42;;;;;;;83.17;42.78;;;;;;;4.10;100.00;99955.19;1484840;87;21448;-82
2022/12/09 07:14:09;;;;;;;90.80;42.43;;;;;;;4.05;100.00;99957.32;1477940;87;21441;-84
2022/12/09 07:16:35;;;;;;;83.03;42.87;;;;;;;4.06;100.00;99962.94;1473205;88;21958;-81
2022/12/09 07:19:03;;;;;;;89.03;42.93;;;;;;;4.10;100.00;99954.36;1485101;88;21412;-81
2022/12/09 07:21:29;;;;;;;74.57;37.27;;;;;;;4.14;100.00;99953.16;1484224;87;21530;-83
2022/12/09 07:24:01;;;;;;;78.90;39.17;;;;;;;4.20;100.00;99951.38;1483660;87;21375;-80
2022/12/09 07:26:32;;;;;;;80.93;42.37;;;;;;;4.27;100.00;99946.03;1483283;88;22363;-82
2022/12/09 07:29:02;;;;;;;83.12;42.08;;;;;;;4.27;100.00;99948.17;1483331;88;22440;-80
2022/12/09 07:31:28;;;;;;;87.97;41.40;;;;;;;4.28;100.00;99939.34;1483875;87;21382;-81
2022/12/09 07:33:57;;;;;;;92.97;44.73;;;;;;;4.26;100.00;99944.38;1484127;87;21684;-81
2022/12/09 07:36:26;;;;;;;85.53;42.90;;;;;;;4.24;100.00;99942.34;1491234;88;21626;-80
2022/12/09 07:39:02;;;;;;;91.57;50.70;;;;;;;4.25;100.00;99946.63;1480425;87;21684;-80
2022/12/09 07:41:29;;;;;;;94.87;50.73;;;;;;;4.27;100.00;99952.11;1475100;87;21692;-83
2022/12/09 07:43:55;;;;;;;82.90;43.50;;;;;;;4.28;100.00;99950.31;1489731;88;21597;-82
2022/12/09 07:46:26;;;;;;;75.27;40.20;;;;;;;4.30;100.00;99944.48;1485323;87;22475;-83
2022/12/09 07:48:52;;;;;;;69.47;35.40;;;;;;;4.31;100.00;99940.91;1478353;87;21479;-82
2022/12/09 07:51:19;;;;;;;71.30;37.33;;;;;;;4.32;100.00;99942.59;1474589;88;22388;-81
2022/12/09 07:53:46;;;;;;;77.10;39.70;;;;;;;4.30;100.00;99940.55;1473180;87;21478;-81
2022/12/09 07:56:15;;;;;;;83.67;40.30;;;;;;;4.31;100.00;99939.59;1474731;87;21375;-81
2022/12/09 07:58:42;;;;;;;83.30;41.47;;;;;;;4.29;100.00;99934.97;1480232;88;21413;-82
2022/12/09 08:01:13;;;;;;;83.13;42.20;;;;;;;4.30;100.00;99932.70;1473419;87;21479;-80
2022/12/09 08:03:40;;;;;;;76.00;39.30;;;;;;;4.30;100.00;99925.66;1470696;87;22373;-80
2022/12/09 08:06:12;;;;;;;71.37;38.43;;;;;;;4.33;100.00;99924.59;1478039;87;22315;-88
2022/12/09 08:08:38;;;;;;;;;;;;;;;4.39;100.00;99925.42;1471562;88;21456;-87
2022/12/09 08:11:14;;;;;;;74.57;36.77;;;;;;;4.40;100.00;99915.77;1451990;90;20261;-86
2022/12/09 08:13:41;;;;;;;61.20;33.73;;;;;;;4.47;100.00;99923.03;1453289;90;21415;-87
2022/12/09 08:16:11;;;;;;;62.43;34.67;;;;;;;4.55;100.00;99919.83;1471689;88;21508;-85
2022/12/09 08:18:38;;;;;;;77.03;37.57;;;;;;;4.55;100.00;99916.38;1469571;87;21426;-87
2022/12/09 08:21:15;;;;;;;69.97;36.23;;;;;;;4.55;100.00;99909.82;1474706;88;21486;-88
2022/12/09 08:23:41;;;;;;;66.03;31.47;;;;;;;4.57;100.00;99910.03;1477806;87;21530;-87
2022/12/09 08:26:11;;;;;;;67.83;35.47;;;;;;;4.57;100.00;99910.03;1477228;87;22336;-84
2022/12/09 08:28:37;;;;;;;65.27;36.60;;;;;;;4.61;100.00;99910.64;1476237;88;21420;-89
2022/12/09 08:31:10;;;;;;;69.83;35.43;;;;;;;4.65;100.00;99910.74;1462830;88;21457;-88
2022/12/09 08:33:38;;;;;;;71.60;37.20;;;;;;;4.67;100.00;99907.53;1473483;87;21604;-91
2022/12/09 08:36:12;;;;;;;72.50;39.07;;;;;;;4.69;100.00;99910.84;1474120;88;22270;-91
2022/12/09 08:38:39;;;;;;;67.17;36.20;;;;;;;4.75;100.00;99913.00;1464995;87;22055;-91
2022/12/09 08:41:19;;;;;;;78.03;39.43;;;;;;;4.80;100.00;99911.30;1470658;88;21471;-91
2022/12/09 08:43:46;;;;;;;74.77;36.98;;;;;;;4.80;100.00;99909.50;1476424;87;21464;-89
2022/12/09 08:46:13;;;;;;;77.43;36.03;;;;;;;4.82;100.00;99914.16;1474327;88;21464;-89
2022/12/09 08:48:41;;;;;;;64.30;33.83;;;;;;;4.85;100.00;99906.04;1468522;88;22380;-90
2022/12/09 08:51:10;;;;;;;65.53;34.13;;;;;;;4.90;100.00;99911.75;1481453;87;22248;-90
2022/12/09 08:53:36;;;;;;;71.83;38.00;;;;;;;4.96;100.00;99911.25;1480246;87;21508;-90
2022/12/09 08:56:14;;;;;;;66.20;33.80;;;;;;;5.05;100.00;99904.91;1482299;87;21382;-91
2022/12/09 08:58:47;;;;;;;68.87;36.03;;;;;;;5.12;100.00;99892.49;1470195;88;22290;-90
2022/12/09 09:01:19;;;;;;;70.40;35.63;;;;;;;5.20;100.00;99889.22;1484410;87;21529;-93
2022/12/09 09:03:46;;;;;;;49.18;28.15;;;;;;;5.24;100.00;99884.09;1489999;87;21434;-93
2022/12/09 09:06:13;;;;;;;70.70;34.70;;;;;;;5.24;100.00;99884.09;1477118;87;22373;-93
2022/12/09 09:08:46;;;;;;;59.83;30.20;;;;;;;5.25;100.00;99884.92;1485838;87;21662;-93
2022/12/09 09:11:16;;;;;;;53.73;28.43;;;;;;;5.26;100.00;99882.15;1477912;87;21581;-92
2022/12/09 09:13:44;;;;;;;58.60;30.17;;;;;;;5.24;100.00;99877.53;1480077;87;22462;-88
2022/12/09 09:16:15;;;;;;;66.53;32.40;;;;;;;5.22;100.00;99865.02;1473179;87;22972;-92
2022/12/09 09:18:42;;;;;;;62.45;29.60;;;;;;;5.30;100.00;99865.21;1487592;87;21625;-91
2022/12/09 09:21:10;;;;;;;51.93;28.37;;;;;;;5.30;100.00;99865.21;1483164;88;21448;-89
2022/12/09 09:23:37;;;;;;;56.27;28.57;;;;;;;5.32;100.00;99868.55;1481012;87;21604;-90
2022/12/09 09:26:04;;;;;;;58.83;29.87;;;;;;;5.31;100.00;99871.29;1482879;87;21448;-91
2022/12/09 09:28:40;;;;;;;65.10;32.93;;;;;;;5.33;100.00;99870.20;1471762;87;22998;-90
2022/12/09 09:31:09;;;;;;;62.43;32.60;;;;;;;5.33;100.00;99864.95;1483226;88;21447;-90
2022/12/09 09:37:35;;;;;;;65.57;30.87;;;;;;;5.31;100.00;99860.30;1486308;88;21478;-90
2022/12/09 09:40:04;;;;;;;54.97;28.23;;;;;;;5.28;100.00;99842.68;1479871;87;21644;-89
2022/12/09 09:42:38;;;;;;;74.80;35.63;;;;;;;5.27;100.00;99844.48;1483408;88;21441;-92
2022/12/09 09:45:08;;;;;;;64.97;34.33;;;;;;;5.25;100.00;99833.27;1482788;88;21477;-88
2022/12/09 09:48:01;;;;;;;76.22;35.88;;;;;;;5.24;100.00;99840.80;1467416;88;22595;-84
2022/12/09 09:50:53;;;;;;;72.33;37.53;;;;;;;5.16;100.00;99842.73;1477567;87;22374;-86
2022/12/09 09:53:25;;;;;;;70.10;35.07;;;;;;;5.10;100.00;99848.50;1480063;87;21678;-83
2022/12/09 09:55:59;;;;;;;93.40;35.93;;;;;;;5.09;100.00;99848.61;1481131;87;22276;-85
2022/12/09 09:59:01;;;;;;;71.00;35.00;;;;;;;5.06;100.00;99853.63;1481251;87;21545;-84
2022/12/09 10:01:30;;;;;;;;;;;;;;;5.08;100.00;99839.08;1481471;87;22025;-84
2022/12/09 10:04:04;;;;;;;61.83;33.87;;;;;;;5.06;100.00;99831.81;1483426;88;20288;-86
2022/12/09 10:10:48;;;;;;;69.87;36.47;;;;;;;5.08;100.00;99828.59;1423979;88;22538;-88
2022/12/09 10:13:44;;;;;;;72.70;36.10;;;;;;;5.09;100.00;99808.80;1358941;96;21532;-85
2022/12/09 10:16:24;;;;;;;65.57;35.90;;;;;;;5.13;100.00;99808.06;1360807;96;22448;-86
2022/12/09 10:19:06;;;;;;;69.32;38.28;;;;;;;5.09;100.00;99798.77;1364430;96;21735;-85
2022/12/09 10:21:33;;;;;;;;;;;;;;;5.04;100.00;99791.30;1432652;95;21405;-88
2022/12/09 10:28:38;;;;;;;74.63;37.70;;;;;;;5.03;100.00;99780.92;1394614;99;21378;-86
2022/12/09 10:31:04;;;;;;;71.07;35.93;;;;;;;5.06;100.00;99772.31;1346963;99;21422;-86
2022/12/09 10:33:35;;;;;;;63.70;33.97;;;;;;;5.11;100.00;99758.34;1394664;99;21467;-88
2022/12/09 10:36:02;;;;;;;68.87;35.73;;;;;;;5.15;100.00;99748.41;1394803;99;21399;-85
2022/12/09 10:38:30;;;;;;;69.10;38.27;;;;;;;5.17;100.00;99741.25;1382934;99;22413;-87
2022/12/09 10:41:13;;;;;;;70.80;38.53;;;;;;;5.20;100.00;99744.44;1305161;99;21801;-84
2022/12/09 10:43:42;;;;;;;75.97;38.27;;;;;;;5.20;100.00;99740.99;1291512;94;22295;-86
2022/12/09 10:46:22;;;;;;;58.83;31.83;;;;;;;5.19;100.00;99740.66;1348559;94;22400;-89
2022/12/09 10:48:54;;;;;;;94.87;51.83;;;;;;;5.22;100.00;99739.08;1457384;94;21583;-86
2022/12/09 10:51:30;;;;;;;78.10;39.53;;;;;;;5.23;100.00;99726.79;1495002;92;21539;-87
2022/12/09 10:54:11;;;;;;;115.27;67.20;;;;;;;5.27;100.00;99722.95;1494382;92;21391;-87
2022/12/09 10:56:41;;;;;;;70.57;40.15;;;;;;;5.31;100.00;99721.23;1472412;91;21414;-88
2022/12/09 10:59:30;;;;;;;67.97;35.65;;;;;;;5.35;100.00;99712.16;1402288;90;21449;-88
2022/12/09 11:02:02;;;;;;;66.30;34.10;;;;;;;5.37;100.00;99703.65;1518229;88;21477;-89
2022/12/09 11:04:35;;;;;;;79.93;42.83;;;;;;;5.38;100.00;99700.08;1478836;88;21470;-90
2022/12/09 11:07:24;;;;;;;79.93;43.43;;;;;;;5.39;100.00;99704.36;1482846;88;21463;-89
2022/12/09 11:09:59;;;;;;;64.80;34.30;;;;;;;5.36;100.00;99691.50;1400717;87;21353;-88
2022/12/09 11:12:33;;;;;;;65.87;33.27;;;;;;;5.31;100.00;99688.44;1485743;87;21463;-87
2022/12/09 11:15:24;;;;;;;66.60;36.03;;;;;;;5.28;100.00;99688.70;1483045;87;21434;-87
2022/12/09 11:22:32;;;;;;;66.10;31.93;;;;;;;5.31;100.00;99685.81;1463953;88;22903;-88
2022/12/09 11:25:14;;;;;;;59.90;31.40;;;;;;;5.33;100.00;99689.14;1465519;87;22020;-88
2022/12/09 11:28:20;;;;;;;61.67;30.37;;;;;;;5.32;100.00;99677.00;1560032;88;21381;-88
2022/12/09 11:31:06;;;;;;;56.73;29.03;;;;;;;5.32;100.00;99666.50;1567427;87;22159;-85
2022/12/09 11:34:14;;;;;;;58.47;29.30;;;;;;;5.35;100.00;99665.37;1489852;87;21404;-88
2022/12/09 11:36:49;;;;;;;46.53;25.83;;;;;;;5.37;100.00;99664.77;1462642;87;21478;-85
2022/12/09 11:39:28;;;;;;;48.90;25.73;;;;;;;5.41;100.00;99668.81;1480519;87;21633;-86
2022/12/09 11:42:17;;;;;;;55.67;28.80;;;;;;;5.47;100.00;99673.98;1481587;87;21570;-86
2022/12/09 11:44:57;;;;;;;48.00;25.47;;;;;;;5.50;100.00;99671.94;1480762;88;21610;-87
2022/12/09 11:47:38;;;;;;;45.88;24.90;;;;;;;5.55;100.00;99676.77;1481074;87;21626;-85
2022/12/09 11:50:24;;;;;;;51.15;23.80;;;;;;;5.49;100.00;99672.06;1477369;87;21671;-88
2022/12/09 11:53:13;;;;;;;44.53;26.23;;;;;;;5.41;100.00;99668.33;1474211;88;21515;-86
2022/12/09 11:55:50;;;;;;;44.73;23.17;;;;;;;5.37;100.00;99673.47;1476247;88;21523;-85
2022/12/09 11:58:22;;;;;;;43.90;22.40;;;;;;;5.32;100.00;99669.12;1474922;87;21524;-85
2022/12/09 12:01:19;;;;;;;42.47;20.27;;;;;;;5.31;100.00;99663.51;1530529;88;21449;-86